Monte Aconcagua — DGOH2 — position and weather

sailwx.info

Track history (hours):
 
Tides and Currents Weather Stations Pressure Air Temp Water Temp Dewpoint Dewpoint Depression Visibility Wind Speed Wind Dir Waves Ship Positions

Monte Aconcagua

Last reported at 2018-Feb-19 01:12 UTC. Time now 2018-Feb-19 21:26 UTC.
Position N 36°50' W 075°48'.

Length 272 m; draft 10.2 m.

Type: Ship (hazmat cat A). MMSI: 218764000.

Date/timePositionNaut miles runAvg speedWind from/ knotsBaromVisibWave heightAir tempDewpointWater temp
2018-Feb-19 01:12N 36°50' W 075°48'3 9.6
2018-Feb-19 00:56N 36°51' W 075°51'4 9.1
2018-Feb-19 00:30N 36°54' W 075°55'5 9.9
2018-Feb-19 00:00N 36°57' W 075°60'612.6
2018-Feb-18 23:30N 36°59' W 076°07'714.7
2018-Feb-18 23:00N 37°00' W 076°16'5 9.7
2018-Feb-18 22:30N 36°57' W 076°20'1 2.9
2018-Feb-18 22:00N 36°55' W 076°20'0 0.0
2018-Feb-18 21:30N 36°55' W 076°20'0 0.0
2018-Feb-18 20:58N 36°55' W 076°20'0 0.0
2018-Feb-18 20:28N 36°55' W 076°20'0 0.0
2018-Feb-18 19:58N 36°55' W 076°20'0 0.0
2018-Feb-18 19:28N 36°55' W 076°20'0 0.0
2018-Feb-18 18:58N 36°55' W 076°20'0 0.0
2018-Feb-18 18:28N 36°55' W 076°20'0 0.0
2018-Feb-18 17:58N 36°55' W 076°20'0 0.0
2018-Feb-18 17:28N 36°55' W 076°20'0 0.0
2018-Feb-18 16:58N 36°55' W 076°20'0 0.0
2018-Feb-18 16:25N 36°55' W 076°20'0 0.0
2018-Feb-18 15:58N 36°55' W 076°20'0 0.0
2018-Feb-18 15:28N 36°55' W 076°20'0 0.0
2018-Feb-18 14:58N 36°55' W 076°20'0 0.0
2018-Feb-18 14:28N 36°55' W 076°20'0 0.0
2018-Feb-18 13:58N 36°55' W 076°20'0 0.0
2018-Feb-18 13:28N 36°55' W 076°20'0 0.0
2018-Feb-18 12:58N 36°55' W 076°20'0 0.0
2018-Feb-18 12:25N 36°55' W 076°20'0 0.0
2018-Feb-18 11:55N 36°55' W 076°20'0 0.0
2018-Feb-18 11:28N 36°55' W 076°20'0 0.0
2018-Feb-18 10:58N 36°55' W 076°20'0 0.1
2018-Feb-18 10:30N 36°55' W 076°20'2 3.9
2018-Feb-18 10:00N 36°57' W 076°20'4 7.5
2018-Feb-18 09:29N 37°00' W 076°17'511.2
2018-Feb-18 09:00N 36°59' W 076°10'612.6
2018-Feb-18 08:30N 36°57' W 076°03'5 9.0
2018-Feb-18 08:00N 36°56' W 075°57'4 7.1
2018-Feb-18 07:30N 36°54' W 075°54'4 9.1
2018-Feb-18 07:00N 36°51' W 075°49'5 9.1
2018-Feb-18 06:30N 36°49' W 075°44'13014.0
2018-Feb-17 21:14N 38°55' W 075°06'315.5
2018-Feb-17 21:00N 38°58' W 075°08'816.0
2018-Feb-17 20:30N 39°06' W 075°12'816.8
2018-Feb-17 20:00N 39°13' W 075°17'816.7
2018-Feb-17 19:30N 39°19' W 075°24'816.1
2018-Feb-17 19:00N 39°25' W 075°31'713.1
2018-Feb-17 18:30N 39°32' W 075°33'612.1
2018-Feb-17 18:01N 39°38' W 075°35'611.7
2018-Feb-17 17:30N 39°42' W 075°31'5 9.7
2018-Feb-17 17:00N 39°47' W 075°28'4 7.2
2018-Feb-17 16:30N 39°49' W 075°24'4 7.3
2018-Feb-17 16:01N 39°51' W 075°20'4 7.7
2018-Feb-17 15:31N 39°51' W 075°15'4 7.2
2018-Feb-17 15:01N 39°53' W 075°11'2 5.0
2018-Feb-17 14:30N 39°54' W 075°08'0 0.3
2018-Feb-17 14:00N 39°54' W 075°08'0 0.0
2018-Feb-17 13:29N 39°54' W 075°08'0 0.0
2018-Feb-17 12:56N 39°54' W 075°08'0 0.0
2018-Feb-17 12:29N 39°54' W 075°08'0 0.0
2018-Feb-17 11:59N 39°54' W 075°08'0 0.0
2018-Feb-17 07:29N 39°54' W 075°08'0 0.0
2018-Feb-17 06:38N 39°54' W 075°08'0 0.0
2018-Feb-17 06:29N 39°54' W 075°08'0 0.0
2018-Feb-17 05:38N 39°54' W 075°08'0 0.0
2018-Feb-17 05:26N 39°54' W 075°08'0 0.0
2018-Feb-17 05:00N 39°54' W 075°08'12 5.9
2018-Feb-17 02:58N 39°50' W 075°23'4 9.7
2018-Feb-17 02:30N 39°47' W 075°27'5 9.7
2018-Feb-17 01:59N 39°43' W 075°31'613.1
2018-Feb-17 01:30N 39°37' W 075°35'612.9
2018-Feb-17 01:00N 39°31' W 075°33'612.5
2018-Feb-17 00:30N 39°25' W 075°31'713.8
2018-Feb-17 00:00N 39°20' W 075°25'713.6
2018-Feb-16 23:30N 39°15' W 075°19'52 6.6
2018-Feb-16 15:33N 38°51' W 074°19'1 9.3
2018-Feb-16 15:28N 38°51' W 074°19'4 7.8
2018-Feb-16 15:00N 38°55' W 074°18'5 9.4
2018-Feb-16 14:29N 38°59' W 074°15'38 9.0
2018-Feb-16 10:15N 39°35' W 073°57'2 9.0
2018-Feb-16 09:59N 39°37' W 073°56'5 9.1
2018-Feb-16 09:29N 39°41' W 073°54'5 9.2
2018-Feb-16 08:54N 39°47' W 073°52'4 9.3
2018-Feb-16 08:28N 39°51' W 073°52'6 9.1
2018-Feb-16 07:48N 39°57' W 073°51'21 8.9
2018-Feb-16 05:28N 40°17' W 073°49'6 9.2
2018-Feb-16 04:48N 40°24' W 073°49'3 8.9
2018-Feb-16 04:30N 40°26' W 073°49'4 8.3
2018-Feb-16 04:00N 40°29' W 073°53'611.6
2018-Feb-16 03:30N 40°31' W 074°00'5 9.0
2018-Feb-16 03:00N 40°36' W 074°02'0 0.3
2018-Feb-16 02:29N 40°36' W 074°02'0 0.1
2018-Feb-16 01:59N 40°36' W 074°02'0 0.0
2018-Feb-16 01:26N 40°36' W 074°02'0 0.1
2018-Feb-16 00:59N 40°36' W 074°02'0 0.1
2018-Feb-16 00:29N 40°36' W 074°02'0 0.0
2018-Feb-15 23:56N 40°36' W 074°02'0 0.1
2018-Feb-15 23:29N 40°36' W 074°02'0 0.1
2018-Feb-15 22:59N 40°36' W 074°02'0 0.3
2018-Feb-15 22:29N 40°36' W 074°02'0 0.3
2018-Feb-15 21:59N 40°36' W 074°02'0 0.0
2018-Feb-15 21:29N 40°36' W 074°02'0 0.0
2018-Feb-15 20:59N 40°36' W 074°02'0 0.0
2018-Feb-15 20:29N 40°36' W 074°02'0 0.0
2018-Feb-15 19:59N 40°36' W 074°02'0 0.1
2018-Feb-15 19:26N 40°36' W 074°02'0 0.0
2018-Feb-15 18:59N 40°36' W 074°02'0 0.0
2018-Feb-15 18:29N 40°36' W 074°02'0 0.0
2018-Feb-15 17:59N 40°36' W 074°02'0 0.0
2018-Feb-15 17:29N 40°36' W 074°02'0 0.0
2018-Feb-15 16:59N 40°36' W 074°02'0 0.0
2018-Feb-15 16:29N 40°36' W 074°02'0 0.1
2018-Feb-15 15:59N 40°36' W 074°02'0 0.3
2018-Feb-15 15:29N 40°36' W 074°02'0 0.1
2018-Feb-15 14:59N 40°36' W 074°02'0 0.3
2018-Feb-15 14:29N 40°36' W 074°02'0 0.1
2018-Feb-15 13:59N 40°36' W 074°02'0 0.1
2018-Feb-15 13:29N 40°36' W 074°02'0 0.0
2018-Feb-15 12:59N 40°36' W 074°02'0 0.0
2018-Feb-15 12:29N 40°36' W 074°02'0 0.0
2018-Feb-15 11:59N 40°36' W 074°02'0 0.1
2018-Feb-15 11:30N 40°36' W 074°02'2 4.7
2018-Feb-15 11:00N 40°38' W 074°03'3 5.9
2018-Feb-15 10:30N 40°39' W 074°07'2 4.1
2018-Feb-15 10:00N 40°39' W 074°10'1 2.2
2018-Feb-15 09:30N 40°39' W 074°11'0 0.0
2018-Feb-15 09:00N 40°39' W 074°11'0 0.0
2018-Feb-15 08:30N 40°39' W 074°11'0 0.0
2018-Feb-15 08:00N 40°39' W 074°11'0 0.0
2018-Feb-15 07:30N 40°39' W 074°11'0 0.0
2018-Feb-15 07:00N 40°39' W 074°11'0 0.0
2018-Feb-15 06:30N 40°39' W 074°11'0 0.0
2018-Feb-15 06:00N 40°39' W 074°11'0 0.0
2018-Feb-15 05:30N 40°39' W 074°11'0 0.0
2018-Feb-15 05:00N 40°39' W 074°11'0 0.0
2018-Feb-15 04:30N 40°39' W 074°11'0 0.0
2018-Feb-15 04:00N 40°39' W 074°11'0 0.0
2018-Feb-15 03:30N 40°39' W 074°11'0 0.0
2018-Feb-15 03:00N 40°39' W 074°11'0 0.0
2018-Feb-15 02:30N 40°39' W 074°11'0 0.0
2018-Feb-15 02:00N 40°39' W 074°11'0 0.0
2018-Feb-15 01:30N 40°39' W 074°11'0 0.0
2018-Feb-15 01:00N 40°39' W 074°11'0 0.0
2018-Feb-15 00:30N 40°39' W 074°11'0 0.0
2018-Feb-15 00:00N 40°39' W 074°11'0 0.0
2018-Feb-14 23:30N 40°39' W 074°11'0 0.0
2018-Feb-14 23:00N 40°39' W 074°11'0 0.0
2018-Feb-14 22:30N 40°39' W 074°11'0 0.0
2018-Feb-14 22:00N 40°39' W 074°11'0 0.0
2018-Feb-14 21:30N 40°39' W 074°11'0 0.0
2018-Feb-14 21:00N 40°39' W 074°11'0 0.0
2018-Feb-14 20:30N 40°39' W 074°11'0 0.0
2018-Feb-14 20:00N 40°39' W 074°11'0 0.0
2018-Feb-14 19:30N 40°39' W 074°11'0 0.0
2018-Feb-14 19:00N 40°39' W 074°11'0 0.0
2018-Feb-14 18:30N 40°39' W 074°11'0 0.0
2018-Feb-14 18:00N 40°39' W 074°11'0 0.0
2018-Feb-14 17:30N 40°39' W 074°11'0 0.0
2018-Feb-14 17:00N 40°39' W 074°11'0 0.0
2018-Feb-14 16:30N 40°39' W 074°11'0 0.0
2018-Feb-14 16:00N 40°39' W 074°11'0 0.0
2018-Feb-14 15:30N 40°39' W 074°11'0 0.0
2018-Feb-14 15:00N 40°39' W 074°11'0 0.0
2018-Feb-14 14:30N 40°39' W 074°11'0 0.0
2018-Feb-14 14:00N 40°39' W 074°11'0 0.0
2018-Feb-14 13:30N 40°39' W 074°11'0 0.0
2018-Feb-14 13:00N 40°39' W 074°11'0 0.0
2018-Feb-14 12:30N 40°39' W 074°11'0 0.0
2018-Feb-14 12:00N 40°39' W 074°11'0 0.0
2018-Feb-14 11:30N 40°39' W 074°11'0 0.5
2018-Feb-14 11:00N 40°39' W 074°11'3 6.4
2018-Feb-14 10:30N 40°39' W 074°07'3 6.4
2018-Feb-14 10:00N 40°38' W 074°03'5 9.8
2018-Feb-14 09:30N 40°33' W 074°02'5 9.8
2018-Feb-14 09:00N 40°30' W 073°56'5 9.7
2018-Feb-14 08:31N 40°28' W 073°51'4 7.9
2018-Feb-14 08:00N 40°26' W 073°46'3 6.0
2018-Feb-14 07:30N 40°24' W 073°43'4 8.8
2018-Feb-14 07:00N 40°21' W 073°38'5 9.9
2018-Feb-14 06:30N 40°18' W 073°33'611.5
2018-Feb-14 06:00N 40°14' W 073°28'612.3
2018-Feb-14 05:30N 40°10' W 073°22'712.4
2018-Feb-14 04:58N 40°06' W 073°15'812.3
2018-Feb-14 04:20N 40°00' W 073°08'  
Track history (hours):
 
Tides and Currents Weather Stations Pressure Air Temp Water Temp Dewpoint Dewpoint Depression Visibility Wind Speed Wind Dir Waves Ship Positions

Monte Aconcagua

Last reported at 2018-Feb-19 01:12 UTC. Time now 2018-Feb-19 21:26 UTC.
Position N 36°50' W 075°48'.

Length 272 m; draft 10.2 m.

Type: Ship (hazmat cat A). MMSI: 218764000.

Date/timePositionNaut miles runAvg speedWind from/ knotsBaromVisibWave heightAir tempDewpointWater temp
2018-Feb-19 01:12N 36°50' W 075°48'3 9.6
2018-Feb-19 00:56N 36°51' W 075°51'4 9.1
2018-Feb-19 00:30N 36°54' W 075°55'5 9.9
2018-Feb-19 00:00N 36°57' W 075°60'612.6
2018-Feb-18 23:30N 36°59' W 076°07'714.7
2018-Feb-18 23:00N 37°00' W 076°16'5 9.7
2018-Feb-18 22:30N 36°57' W 076°20'1 2.9
2018-Feb-18 22:00N 36°55' W 076°20'0 0.0
2018-Feb-18 21:30N 36°55' W 076°20'0 0.0
2018-Feb-18 20:58N 36°55' W 076°20'0 0.0
2018-Feb-18 20:28N 36°55' W 076°20'0 0.0
2018-Feb-18 19:58N 36°55' W 076°20'0 0.0
2018-Feb-18 19:28N 36°55' W 076°20'0 0.0
2018-Feb-18 18:58N 36°55' W 076°20'0 0.0
2018-Feb-18 18:28N 36°55' W 076°20'0 0.0
2018-Feb-18 17:58N 36°55' W 076°20'0 0.0
2018-Feb-18 17:28N 36°55' W 076°20'0 0.0
2018-Feb-18 16:58N 36°55' W 076°20'0 0.0
2018-Feb-18 16:25N 36°55' W 076°20'0 0.0
2018-Feb-18 15:58N 36°55' W 076°20'0 0.0
2018-Feb-18 15:28N 36°55' W 076°20'0 0.0
2018-Feb-18 14:58N 36°55' W 076°20'0 0.0
2018-Feb-18 14:28N 36°55' W 076°20'0 0.0
2018-Feb-18 13:58N 36°55' W 076°20'0 0.0
2018-Feb-18 13:28N 36°55' W 076°20'0 0.0
2018-Feb-18 12:58N 36°55' W 076°20'0 0.0
2018-Feb-18 12:25N 36°55' W 076°20'0 0.0
2018-Feb-18 11:55N 36°55' W 076°20'0 0.0
2018-Feb-18 11:28N 36°55' W 076°20'0 0.0
2018-Feb-18 10:58N 36°55' W 076°20'0 0.1
2018-Feb-18 10:30N 36°55' W 076°20'2 3.9
2018-Feb-18 10:00N 36°57' W 076°20'4 7.5
2018-Feb-18 09:29N 37°00' W 076°17'511.2
2018-Feb-18 09:00N 36°59' W 076°10'612.6
2018-Feb-18 08:30N 36°57' W 076°03'5 9.0
2018-Feb-18 08:00N 36°56' W 075°57'4 7.1
2018-Feb-18 07:30N 36°54' W 075°54'4 9.1
2018-Feb-18 07:00N 36°51' W 075°49'5 9.1
2018-Feb-18 06:30N 36°49' W 075°44'13014.0
2018-Feb-17 21:14N 38°55' W 075°06'315.5
2018-Feb-17 21:00N 38°58' W 075°08'816.0
2018-Feb-17 20:30N 39°06' W 075°12'816.8
2018-Feb-17 20:00N 39°13' W 075°17'816.7
2018-Feb-17 19:30N 39°19' W 075°24'816.1
2018-Feb-17 19:00N 39°25' W 075°31'713.1
2018-Feb-17 18:30N 39°32' W 075°33'612.1
2018-Feb-17 18:01N 39°38' W 075°35'611.7
2018-Feb-17 17:30N 39°42' W 075°31'5 9.7
2018-Feb-17 17:00N 39°47' W 075°28'4 7.2
2018-Feb-17 16:30N 39°49' W 075°24'4 7.3
2018-Feb-17 16:01N 39°51' W 075°20'4 7.7
2018-Feb-17 15:31N 39°51' W 075°15'4 7.2
2018-Feb-17 15:01N 39°53' W 075°11'2 5.0
2018-Feb-17 14:30N 39°54' W 075°08'0 0.3
2018-Feb-17 14:00N 39°54' W 075°08'0 0.0
2018-Feb-17 13:29N 39°54' W 075°08'0 0.0
2018-Feb-17 12:56N 39°54' W 075°08'0 0.0
2018-Feb-17 12:29N 39°54' W 075°08'0 0.0
2018-Feb-17 11:59N 39°54' W 075°08'0 0.0
2018-Feb-17 07:29N 39°54' W 075°08'0 0.0
2018-Feb-17 06:38N 39°54' W 075°08'0 0.0
2018-Feb-17 06:29N 39°54' W 075°08'0 0.0
2018-Feb-17 05:38N 39°54' W 075°08'0 0.0
2018-Feb-17 05:26N 39°54' W 075°08'0 0.0
2018-Feb-17 05:00N 39°54' W 075°08'12 5.9
2018-Feb-17 02:58N 39°50' W 075°23'4 9.7
2018-Feb-17 02:30N 39°47' W 075°27'5 9.7
2018-Feb-17 01:59N 39°43' W 075°31'613.1
2018-Feb-17 01:30N 39°37' W 075°35'612.9
2018-Feb-17 01:00N 39°31' W 075°33'612.5
2018-Feb-17 00:30N 39°25' W 075°31'713.8
2018-Feb-17 00:00N 39°20' W 075°25'713.6
2018-Feb-16 23:30N 39°15' W 075°19'52 6.6
2018-Feb-16 15:33N 38°51' W 074°19'1 9.3
2018-Feb-16 15:28N 38°51' W 074°19'4 7.8
2018-Feb-16 15:00N 38°55' W 074°18'5 9.4
2018-Feb-16 14:29N 38°59' W 074°15'38 9.0
2018-Feb-16 10:15N 39°35' W 073°57'2 9.0
2018-Feb-16 09:59N 39°37' W 073°56'5 9.1
2018-Feb-16 09:29N 39°41' W 073°54'5 9.2
2018-Feb-16 08:54N 39°47' W 073°52'4 9.3
2018-Feb-16 08:28N 39°51' W 073°52'6 9.1
2018-Feb-16 07:48N 39°57' W 073°51'21 8.9
2018-Feb-16 05:28N 40°17' W 073°49'6 9.2
2018-Feb-16 04:48N 40°24' W 073°49'3 8.9
2018-Feb-16 04:30N 40°26' W 073°49'4 8.3
2018-Feb-16 04:00N 40°29' W 073°53'611.6
2018-Feb-16 03:30N 40°31' W 074°00'5 9.0
2018-Feb-16 03:00N 40°36' W 074°02'0 0.3
2018-Feb-16 02:29N 40°36' W 074°02'0 0.1
2018-Feb-16 01:59N 40°36' W 074°02'0 0.0
2018-Feb-16 01:26N 40°36' W 074°02'0 0.1
2018-Feb-16 00:59N 40°36' W 074°02'0 0.1
2018-Feb-16 00:29N 40°36' W 074°02'0 0.0
2018-Feb-15 23:56N 40°36' W 074°02'0 0.1
2018-Feb-15 23:29N 40°36' W 074°02'0 0.1
2018-Feb-15 22:59N 40°36' W 074°02'0 0.3
2018-Feb-15 22:29N 40°36' W 074°02'0 0.3
2018-Feb-15 21:59N 40°36' W 074°02'0 0.0
2018-Feb-15 21:29N 40°36' W 074°02'0 0.0
2018-Feb-15 20:59N 40°36' W 074°02'0 0.0
2018-Feb-15 20:29N 40°36' W 074°02'0 0.0
2018-Feb-15 19:59N 40°36' W 074°02'0 0.1
2018-Feb-15 19:26N 40°36' W 074°02'0 0.0
2018-Feb-15 18:59N 40°36' W 074°02'0 0.0
2018-Feb-15 18:29N 40°36' W 074°02'0 0.0
2018-Feb-15 17:59N 40°36' W 074°02'0 0.0
2018-Feb-15 17:29N 40°36' W 074°02'0 0.0
2018-Feb-15 16:59N 40°36' W 074°02'0 0.0
2018-Feb-15 16:29N 40°36' W 074°02'0 0.1
2018-Feb-15 15:59N 40°36' W 074°02'0 0.3
2018-Feb-15 15:29N 40°36' W 074°02'0 0.1
2018-Feb-15 14:59N 40°36' W 074°02'0 0.3
2018-Feb-15 14:29N 40°36' W 074°02'0 0.1
2018-Feb-15 13:59N 40°36' W 074°02'0 0.1
2018-Feb-15 13:29N 40°36' W 074°02'0 0.0
2018-Feb-15 12:59N 40°36' W 074°02'0 0.0
2018-Feb-15 12:29N 40°36' W 074°02'0 0.0
2018-Feb-15 11:59N 40°36' W 074°02'0 0.1
2018-Feb-15 11:30N 40°36' W 074°02'2 4.7
2018-Feb-15 11:00N 40°38' W 074°03'3 5.9
2018-Feb-15 10:30N 40°39' W 074°07'2 4.1
2018-Feb-15 10:00N 40°39' W 074°10'1 2.2
2018-Feb-15 09:30N 40°39' W 074°11'0 0.0
2018-Feb-15 09:00N 40°39' W 074°11'0 0.0
2018-Feb-15 08:30N 40°39' W 074°11'0 0.0
2018-Feb-15 08:00N 40°39' W 074°11'0 0.0
2018-Feb-15 07:30N 40°39' W 074°11'0 0.0
2018-Feb-15 07:00N 40°39' W 074°11'0 0.0
2018-Feb-15 06:30N 40°39' W 074°11'0 0.0
2018-Feb-15 06:00N 40°39' W 074°11'0 0.0
2018-Feb-15 05:30N 40°39' W 074°11'0 0.0
2018-Feb-15 05:00N 40°39' W 074°11'0 0.0
2018-Feb-15 04:30N 40°39' W 074°11'0 0.0
2018-Feb-15 04:00N 40°39' W 074°11'0 0.0
2018-Feb-15 03:30N 40°39' W 074°11'0 0.0
2018-Feb-15 03:00N 40°39' W 074°11'0 0.0
2018-Feb-15 02:30N 40°39' W 074°11'0 0.0
2018-Feb-15 02:00N 40°39' W 074°11'0 0.0
2018-Feb-15 01:30N 40°39' W 074°11'0 0.0
2018-Feb-15 01:00N 40°39' W 074°11'0 0.0
2018-Feb-15 00:30N 40°39' W 074°11'0 0.0
2018-Feb-15 00:00N 40°39' W 074°11'0 0.0
2018-Feb-14 23:30N 40°39' W 074°11'0 0.0
2018-Feb-14 23:00N 40°39' W 074°11'0 0.0
2018-Feb-14 22:30N 40°39' W 074°11'0 0.0
2018-Feb-14 22:00N 40°39' W 074°11'0 0.0
2018-Feb-14 21:30N 40°39' W 074°11'0 0.0
2018-Feb-14 21:00N 40°39' W 074°11'0 0.0
2018-Feb-14 20:30N 40°39' W 074°11'0 0.0
2018-Feb-14 20:00N 40°39' W 074°11'0 0.0
2018-Feb-14 19:30N 40°39' W 074°11'0 0.0
2018-Feb-14 19:00N 40°39' W 074°11'0 0.0
2018-Feb-14 18:30N 40°39' W 074°11'0 0.0
2018-Feb-14 18:00N 40°39' W 074°11'0 0.0
2018-Feb-14 17:30N 40°39' W 074°11'0 0.0
2018-Feb-14 17:00N 40°39' W 074°11'0 0.0
2018-Feb-14 16:30N 40°39' W 074°11'0 0.0
2018-Feb-14 16:00N 40°39' W 074°11'0 0.0
2018-Feb-14 15:30N 40°39' W 074°11'0 0.0
2018-Feb-14 15:00N 40°39' W 074°11'0 0.0
2018-Feb-14 14:30N 40°39' W 074°11'0 0.0
2018-Feb-14 14:00N 40°39' W 074°11'0 0.0
2018-Feb-14 13:30N 40°39' W 074°11'0 0.0
2018-Feb-14 13:00N 40°39' W 074°11'0 0.0
2018-Feb-14 12:30N 40°39' W 074°11'0 0.0
2018-Feb-14 12:00N 40°39' W 074°11'0 0.0
2018-Feb-14 11:30N 40°39' W 074°11'0 0.5
2018-Feb-14 11:00N 40°39' W 074°11'3 6.4
2018-Feb-14 10:30N 40°39' W 074°07'3 6.4
2018-Feb-14 10:00N 40°38' W 074°03'5 9.8
2018-Feb-14 09:30N 40°33' W 074°02'5 9.8
2018-Feb-14 09:00N 40°30' W 073°56'5 9.7
2018-Feb-14 08:31N 40°28' W 073°51'4 7.9
2018-Feb-14 08:00N 40°26' W 073°46'3 6.0
2018-Feb-14 07:30N 40°24' W 073°43'4 8.8
2018-Feb-14 07:00N 40°21' W 073°38'5 9.9
2018-Feb-14 06:30N 40°18' W 073°33'611.5
2018-Feb-14 06:00N 40°14' W 073°28'612.3
2018-Feb-14 05:30N 40°10' W 073°22'712.4
2018-Feb-14 04:58N 40°06' W 073°15'812.3
2018-Feb-14 04:20N 40°00' W 073°08'  

Dump ship's entire track history